sensor_id;sensor_type;location;lat;lon;timestamp;pressure;altitude;pressure_sealevel;temperature;humidity
54321;BME280;40219;55.838;-4.266;2022-09-09T00:00:28;100284.05;;;19.07;47.46
54321;BME280;40219;55.838;-4.266;2022-09-09T00:03:06;100283.49;;;19.32;47.45
54321;BME280;40219;55.838;-4.266;2022-09-09T00:05:41;100283.06;;;19.29;47.55
54321;BME280;40219;55.838;-4.266;2022-09-09T00:08:17;100283.58;;;18.82;47.67
54321;BME280;40219;55.838;-4.266;2022-09-09T00:10:48;100278.20;;;19.07;47.50
54321;BME280;40219;55.838;-4.266;2022-09-09T00:13:24;100280.33;;;19.07;47.15
54321;BME280;40219;55.838;-4.266;2022-09-09T00:16:00;100281.86;;;19.01;47.70
54321;BME280;40219;55.838;-4.266;2022-09-09T00:18:38;100283.91;;;19.04;47.68
54321;BME280;40219;55.838;-4.266;2022-09-09T00:21:13;100277.05;;;19.05;47.39
54321;BME280;40219;55.838;-4.266;2022-09-09T00:23:44;100282.48;;;19.28;47.46
54321;BME280;40219;55.838;-4.266;2022-09-09T00:26:20;100285.92;;;19.23;47.53
54321;BME280;40219;55.838;-4.266;2022-09-09T00:28:55;100286.59;;;18.90;47.72
54321;BME280;40219;55.838;-4.266;2022-09-09T00:31:29;100287.44;;;18.91;47.87
54321;BME280;40219;55.838;-4.266;2022-09-09T00:34:03;100288.50;;;19.21;47.67
54321;BME280;40219;55.838;-4.266;2022-09-09T00:36:33;100286.01;;;18.97;47.63
54321;BME280;40219;55.838;-4.266;2022-09-09T00:39:01;100286.66;;;19.02;47.80
54321;BME280;40219;55.838;-4.266;2022-09-09T00:41:39;100289.12;;;19.05;47.88
54321;BME280;40219;55.838;-4.266;2022-09-09T00:44:22;100292.00;;;19.12;47.86
54321;BME280;40219;55.838;-4.266;2022-09-09T00:46:59;100293.77;;;18.97;47.67
54321;BME280;40219;55.838;-4.266;2022-09-09T00:49:40;100295.50;;;19.02;47.64
54321;BME280;40219;55.838;-4.266;2022-09-09T00:52:21;100291.96;;;19.02;47.44
54321;BME280;40219;55.838;-4.266;2022-09-09T00:54:56;100288.68;;;19.29;47.65
54321;BME280;40219;55.838;-4.266;2022-09-09T00:57:31;100288.62;;;19.25;47.65
54321;BME280;40219;55.838;-4.266;2022-09-09T01:00:21;100287.68;;;19.63;47.51
54321;BME280;40219;55.838;-4.266;2022-09-09T01:02:56;100286.27;;;19.35;47.49
54321;BME280;40219;55.838;-4.266;2022-09-09T01:05:33;100287.37;;;19.37;47.61
54321;BME280;40219;55.838;-4.266;2022-09-09T01:08:07;100284.33;;;19.13;47.67
54321;BME280;40219;55.838;-4.266;2022-09-09T01:10:45;100281.86;;;19.33;47.51
54321;BME280;40219;55.838;-4.266;2022-09-09T01:13:19;100283.40;;;19.32;47.86
54321;BME280;40219;55.838;-4.266;2022-09-09T01:15:49;100281.03;;;19.32;47.69
54321;BME280;40219;55.838;-4.266;2022-09-09T01:18:17;100282.43;;;19.32;47.54
54321;BME280;40219;55.838;-4.266;2022-09-09T01:20:56;100282.85;;;19.16;47.69
54321;BME280;40219;55.838;-4.266;2022-09-09T01:23:43;100280.85;;;19.56;47.34
54321;BME280;40219;55.838;-4.266;2022-09-09T01:26:19;100283.18;;;19.20;47.79
54321;BME280;40219;55.838;-4.266;2022-09-09T01:28:50;100286.66;;;18.99;47.52
54321;BME280;40219;55.838;-4.266;2022-09-09T01:31:19;100288.93;;;19.24;47.79
54321;BME280;40219;55.838;-4.266;2022-09-09T01:33:47;100286.03;;;19.41;47.48
54321;BME280;40219;55.838;-4.266;2022-09-09T01:36:20;100289.14;;;18.85;47.81
54321;BME280;40219;55.838;-4.266;2022-09-09T01:38:49;100293.76;;;18.85;47.83
54321;BME280;40219;55.838;-4.266;2022-09-09T01:41:17;100295.53;;;18.97;48.14
54321;BME280;40219;55.838;-4.266;2022-09-09T01:43:44;100294.61;;;18.93;48.34
54321;BME280;40219;55.838;-4.266;2022-09-09T01:46:12;100298.05;;;18.64;48.66
54321;BME280;40219;55.838;-4.266;2022-09-09T01:48:40;100303.68;;;18.79;48.53
54321;BME280;40219;55.838;-4.266;2022-09-09T01:51:08;100305.51;;;18.70;49.05
54321;BME280;40219;55.838;-4.266;2022-09-09T01:53:37;100306.89;;;18.64;49.28
54321;BME280;40219;55.838;-4.266;2022-09-09T01:56:13;100307.81;;;18.61;49.42
54321;BME280;40219;55.838;-4.266;2022-09-09T01:58:53;100311.19;;;18.58;49.33
54321;BME280;40219;55.838;-4.266;2022-09-09T02:01:28;100313.59;;;18.51;49.57
54321;BME280;40219;55.838;-4.266;2022-09-09T02:04:02;100311.37;;;18.96;49.63
54321;BME280;40219;55.838;-4.266;2022-09-09T02:06:36;100310.88;;;18.68;49.83
54321;BME280;40219;55.838;-4.266;2022-09-09T02:09:06;100313.68;;;18.39;49.85
54321;BME280;40219;55.838;-4.266;2022-09-09T02:11:35;100313.80;;;18.62;49.84
54321;BME280;40219;55.838;-4.266;2022-09-09T02:14:06;100317.87;;;18.35;50.03
54321;BME280;40219;55.838;-4.266;2022-09-09T02:16:39;100320.15;;;18.91;49.68
54321;BME280;40219;55.838;-4.266;2022-09-09T02:19:10;100319.19;;;18.68;49.73
54321;BME280;40219;55.838;-4.266;2022-09-09T02:21:41;100324.78;;;18.70;49.70
54321;BME280;40219;55.838;-4.266;2022-09-09T02:24:11;100324.21;;;18.47;49.45
54321;BME280;40219;55.838;-4.266;2022-09-09T02:26:43;100327.73;;;18.80;49.38
54321;BME280;40219;55.838;-4.266;2022-09-09T02:29:14;100328.74;;;18.80;49.32
54321;BME280;40219;55.838;-4.266;2022-09-09T02:31:45;100333.93;;;18.83;49.38
54321;BME280;40219;55.838;-4.266;2022-09-09T02:34:14;100335.38;;;18.82;48.80
54321;BME280;40219;55.838;-4.266;2022-09-09T02:36:44;100339.41;;;18.92;49.02
54321;BME280;40219;55.838;-4.266;2022-09-09T02:39:13;100335.60;;;18.69;48.95
54321;BME280;40219;55.838;-4.266;2022-09-09T02:41:42;100337.76;;;18.67;48.78
54321;BME280;40219;55.838;-4.266;2022-09-09T02:44:11;100340.00;;;18.70;48.79
54321;BME280;40219;55.838;-4.266;2022-09-09T02:46:53;100340.39;;;18.93;48.94
54321;BME280;40219;55.838;-4.266;2022-09-09T02:49:30;100347.20;;;18.73;48.86
54321;BME280;40219;55.838;-4.266;2022-09-09T02:52:04;100345.39;;;18.65;49.19
54321;BME280;40219;55.838;-4.266;2022-09-09T02:54:34;100343.74;;;18.54;49.59
54321;BME280;40219;55.838;-4.266;2022-09-09T02:57:04;100341.57;;;18.94;49.86
54321;BME280;40219;55.838;-4.266;2022-09-09T02:59:34;100343.45;;;18.48;50.19
54321;BME280;40219;55.838;-4.266;2022-09-09T03:02:01;100338.20;;;18.57;50.42
54321;BME280;40219;55.838;-4.266;2022-09-09T03:04:29;100338.46;;;18.75;50.22
54321;BME280;40219;55.838;-4.266;2022-09-09T03:06:56;100338.92;;;18.87;49.84
54321;BME280;40219;55.838;-4.266;2022-09-09T03:09:24;100340.63;;;18.97;49.61
54321;BME280;40219;55.838;-4.266;2022-09-09T03:11:52;100340.56;;;19.03;49.47
54321;BME280;40219;55.838;-4.266;2022-09-09T03:14:19;100339.21;;;19.09;49.33
54321;BME280;40219;55.838;-4.266;2022-09-09T03:16:46;100341.65;;;19.15;49.11
54321;BME280;40219;55.838;-4.266;2022-09-09T03:19:14;100344.43;;;19.16;48.73
54321;BME280;40219;55.838;-4.266;2022-09-09T03:21:41;100343.02;;;18.88;48.87
54321;BME280;40219;55.838;-4.266;2022-09-09T03:24:08;100346.68;;;18.90;48.68
54321;BME280;40219;55.838;-4.266;2022-09-09T03:26:36;100349.49;;;18.87;48.34
54321;BME280;40219;55.838;-4.266;2022-09-09T03:29:04;100355.02;;;18.64;48.32
54321;BME280;40219;55.838;-4.266;2022-09-09T03:31:31;100347.92;;;18.77;48.49
54321;BME280;40219;55.838;-4.266;2022-09-09T03:33:58;100353.28;;;18.98;48.57
54321;BME280;40219;55.838;-4.266;2022-09-09T03:36:26;100356.26;;;18.91;48.37
54321;BME280;40219;55.838;-4.266;2022-09-09T03:38:53;100355.81;;;18.64;48.34
54321;BME280;40219;55.838;-4.266;2022-09-09T03:41:20;100355.02;;;18.65;48.56
54321;BME280;40219;55.838;-4.266;2022-09-09T03:43:48;100356.25;;;18.95;48.44
54321;BME280;40219;55.838;-4.266;2022-09-09T03:46:14;100359.16;;;18.68;48.00
54321;BME280;40219;55.838;-4.266;2022-09-09T03:48:41;100360.84;;;18.56;47.82
54321;BME280;40219;55.838;-4.266;2022-09-09T03:51:08;100363.99;;;18.45;47.54
54321;BME280;40219;55.838;-4.266;2022-09-09T03:53:35;100367.20;;;18.55;47.88
54321;BME280;40219;55.838;-4.266;2022-09-09T03:56:03;100371.22;;;18.21;48.18
54321;BME280;40219;55.838;-4.266;2022-09-09T03:58:31;100374.63;;;18.47;47.96
54321;BME280;40219;55.838;-4.266;2022-09-09T04:01:00;100377.93;;;18.46;48.11
54321;BME280;40219;55.838;-4.266;2022-09-09T04:03:29;100379.04;;;18.46;47.57
54321;BME280;40219;55.838;-4.266;2022-09-09T04:05:59;100379.35;;;18.55;47.66
54321;BME280;40219;55.838;-4.266;2022-09-09T04:08:27;100381.06;;;18.71;47.74
54321;BME280;40219;55.838;-4.266;2022-09-09T04:10:54;100385.70;;;18.44;47.64
54321;BME280;40219;55.838;-4.266;2022-09-09T04:13:21;100385.06;;;18.59;48.11
54321;BME280;40219;55.838;-4.266;2022-09-09T04:15:51;100391.62;;;18.18;47.92
54321;BME280;40219;55.838;-4.266;2022-09-09T04:18:19;100394.37;;;18.16;47.95
54321;BME280;40219;55.838;-4.266;2022-09-09T04:20:47;100396.81;;;18.56;47.84
54321;BME280;40219;55.838;-4.266;2022-09-09T04:23:16;100396.64;;;18.24;48.02
54321;BME280;40219;55.838;-4.266;2022-09-09T04:25:45;100396.64;;;18.46;48.15
54321;BME280;40219;55.838;-4.266;2022-09-09T04:28:13;100402.09;;;18.44;48.14
54321;BME280;40219;55.838;-4.266;2022-09-09T04:30:41;100398.69;;;18.06;48.31
54321;BME280;40219;55.838;-4.266;2022-09-09T04:33:09;100401.08;;;18.23;48.29
54321;BME280;40219;55.838;-4.266;2022-09-09T04:35:38;100402.47;;;17.83;48.62
54321;BME280;40219;55.838;-4.266;2022-09-09T04:38:06;100401.79;;;18.12;48.48
54321;BME280;40219;55.838;-4.266;2022-09-09T04:40:33;100405.81;;;18.07;48.73
54321;BME280;40219;55.838;-4.266;2022-09-09T04:43:02;100402.61;;;18.18;48.41
54321;BME280;40219;55.838;-4.266;2022-09-09T04:45:30;100403.46;;;18.28;48.29
54321;BME280;40219;55.838;-4.266;2022-09-09T04:47:57;100401.57;;;18.40;48.06
54321;BME280;40219;55.838;-4.266;2022-09-09T04:50:24;100403.54;;;18.14;47.80
54321;BME280;40219;55.838;-4.266;2022-09-09T04:52:51;100408.05;;;18.39;47.91
54321;BME280;40219;55.838;-4.266;2022-09-09T04:55:18;100408.40;;;18.28;48.05
54321;BME280;40219;55.838;-4.266;2022-09-09T04:57:46;100414.68;;;18.40;47.53
54321;BME280;40219;55.838;-4.266;2022-09-09T05:00:14;100418.93;;;18.65;47.74
54321;BME280;40219;55.838;-4.266;2022-09-09T05:02:41;100419.75;;;18.42;47.59
54321;BME280;40219;55.838;-4.266;2022-09-09T05:05:09;100420.11;;;19.10;47.36
54321;BME280;40219;55.838;-4.266;2022-09-09T05:07:37;100421.49;;;18.38;47.72
54321;BME280;40219;55.838;-4.266;2022-09-09T05:10:10;100425.52;;;18.62;47.67
54321;BME280;40219;55.838;-4.266;2022-09-09T05:12:38;100427.77;;;18.63;47.48
54321;BME280;40219;55.838;-4.266;2022-09-09T05:15:05;100428.26;;;18.55;47.72
54321;BME280;40219;55.838;-4.266;2022-09-09T05:17:58;100428.23;;;18.55;47.86
54321;BME280;40219;55.838;-4.266;2022-09-09T05:20:26;100432.53;;;18.55;47.95
54321;BME280;40219;55.838;-4.266;2022-09-09T05:22:53;100434.30;;;18.56;48.00
54321;BME280;40219;55.838;-4.266;2022-09-09T05:25:21;100438.60;;;18.58;47.94
54321;BME280;40219;55.838;-4.266;2022-09-09T05:27:49;100444.14;;;18.60;47.93
54321;BME280;40219;55.838;-4.266;2022-09-09T05:30:17;100444.44;;;18.62;47.97
54321;BME280;40219;55.838;-4.266;2022-09-09T05:32:44;100446.30;;;18.69;48.16
54321;BME280;40219;55.838;-4.266;2022-09-09T05:35:11;100447.08;;;18.74;47.89
54321;BME280;40219;55.838;-4.266;2022-09-09T05:37:38;100446.09;;;18.70;47.94
54321;BME280;40219;55.838;-4.266;2022-09-09T05:40:06;100446.38;;;18.75;47.98
54321;BME280;40219;55.838;-4.266;2022-09-09T05:42:33;100449.92;;;18.77;47.62
54321;BME280;40219;55.838;-4.266;2022-09-09T05:45:00;100445.12;;;18.47;48.02
54321;BME280;40219;55.838;-4.266;2022-09-09T05:47:27;100451.96;;;18.51;47.94
54321;BME280;40219;55.838;-4.266;2022-09-09T05:49:55;100451.20;;;18.58;47.80
54321;BME280;40219;55.838;-4.266;2022-09-09T05:52:27;100457.47;;;18.88;47.68
54321;BME280;40219;55.838;-4.266;2022-09-09T05:54:55;100452.81;;;18.91;47.64
54321;BME280;40219;55.838;-4.266;2022-09-09T05:57:23;100452.93;;;18.97;47.76
54321;BME280;40219;55.838;-4.266;2022-09-09T05:59:50;100453.46;;;18.95;47.52
54321;BME280;40219;55.838;-4.266;2022-09-09T06:02:17;100460.82;;;18.92;47.86
54321;BME280;40219;55.838;-4.266;2022-09-09T06:04:45;100459.58;;;18.68;47.82
54321;BME280;40219;55.838;-4.266;2022-09-09T06:07:13;100463.36;;;18.71;47.48
54321;BME280;40219;55.838;-4.266;2022-09-09T06:09:40;100467.07;;;18.66;47.56
54321;BME280;40219;55.838;-4.266;2022-09-09T06:12:07;100471.53;;;18.97;47.66
54321;BME280;40219;55.838;-4.266;2022-09-09T06:14:35;100473.29;;;18.93;47.56
54321;BME280;40219;55.838;-4.266;2022-09-09T06:17:02;100476.74;;;18.90;47.36
54321;BME280;40219;55.838;-4.266;2022-09-09T06:19:30;100476.08;;;18.89;47.35
54321;BME280;40219;55.838;-4.266;2022-09-09T06:21:57;100481.29;;;18.75;47.80
54321;BME280;40219;55.838;-4.266;2022-09-09T06:24:24;100485.26;;;18.46;47.71
54321;BME280;40219;55.838;-4.266;2022-09-09T06:26:51;100489.41;;;18.80;47.52
54321;BME280;40219;55.838;-4.266;2022-09-09T06:29:18;100494.92;;;18.57;47.39
54321;BME280;40219;55.838;-4.266;2022-09-09T06:31:45;100501.51;;;18.91;47.30
54321;BME280;40219;55.838;-4.266;2022-09-09T06:34:12;100507.07;;;18.71;46.75
54321;BME280;40219;55.838;-4.266;2022-09-09T06:36:39;100513.66;;;18.66;47.01
54321;BME280;40219;55.838;-4.266;2022-09-09T06:39:07;100515.89;;;18.99;46.98
54321;BME280;40219;55.838;-4.266;2022-09-09T06:41:34;100518.89;;;18.82;46.95
54321;BME280;40219;55.838;-4.266;2022-09-09T06:44:02;100521.45;;;18.88;46.91
54321;BME280;40219;55.838;-4.266;2022-09-09T06:46:36;100528.48;;;18.71;46.30
54321;BME280;40219;55.838;-4.266;2022-09-09T06:49:06;100527.35;;;19.06;46.06
54321;BME280;40219;55.838;-4.266;2022-09-09T06:51:35;100532.10;;;18.85;46.27
54321;BME280;40219;55.838;-4.266;2022-09-09T06:54:03;100534.37;;;19.20;46.40
54321;BME280;40219;55.838;-4.266;2022-09-09T06:56:33;100536.55;;;19.60;45.87
54321;BME280;40219;55.838;-4.266;2022-09-09T06:59:02;100543.37;;;19.57;45.82
54321;BME280;40219;55.838;-4.266;2022-09-09T07:01:33;100546.62;;;19.49;46.08
54321;BME280;40219;55.838;-4.266;2022-09-09T07:04:02;100548.25;;;19.57;46.06
54321;BME280;40219;55.838;-4.266;2022-09-09T07:06:31;100554.34;;;19.30;45.60
54321;BME280;40219;55.838;-4.266;2022-09-09T07:09:01;100557.30;;;19.23;45.93
54321;BME280;40219;55.838;-4.266;2022-09-09T07:11:32;100560.77;;;18.90;46.28
54321;BME280;40219;55.838;-4.266;2022-09-09T07:14:00;100561.00;;;19.35;45.80
54321;BME280;40219;55.838;-4.266;2022-09-09T07:16:29;100561.85;;;19.28;46.33
54321;BME280;40219;55.838;-4.266;2022-09-09T07:18:56;100564.76;;;18.91;46.50
54321;BME280;40219;55.838;-4.266;2022-09-09T07:21:25;100569.66;;;18.78;46.99
54321;BME280;40219;55.838;-4.266;2022-09-09T07:23:53;100569.89;;;18.78;47.04
54321;BME280;40219;55.838;-4.266;2022-09-09T07:26:23;100575.10;;;18.84;47.25
54321;BME280;40219;55.838;-4.266;2022-09-09T07:28:51;100579.16;;;18.98;47.00
54321;BME280;40219;55.838;-4.266;2022-09-09T07:31:22;100580.57;;;18.85;46.89
54321;BME280;40219;55.838;-4.266;2022-09-09T07:33:49;100586.76;;;19.24;47.11
54321;BME280;40219;55.838;-4.266;2022-09-09T07:36:18;100587.20;;;18.93;47.00
54321;BME280;40219;55.838;-4.266;2022-09-09T07:38:48;100591.69;;;19.08;46.95
54321;BME280;40219;55.838;-4.266;2022-09-09T07:41:18;100597.31;;;19.19;46.45
54321;BME280;40219;55.838;-4.266;2022-09-09T07:43:48;100600.22;;;19.14;46.57
54321;BME280;40219;55.838;-4.266;2022-09-09T07:46:17;100600.76;;;19.06;46.35
54321;BME280;40219;55.838;-4.266;2022-09-09T07:48:47;100605.32;;;19.40;46.73
54321;BME280;40219;55.838;-4.266;2022-09-09T07:51:17;100608.80;;;19.66;46.33
54321;BME280;40219;55.838;-4.266;2022-09-09T07:53:45;100609.19;;;19.47;46.04
54321;BME280;40219;55.838;-4.266;2022-09-09T07:56:16;100610.10;;;19.49;46.21
54321;BME280;40219;55.838;-4.266;2022-09-09T07:58:45;100612.91;;;19.43;46.26
54321;BME280;40219;55.838;-4.266;2022-09-09T08:01:14;100615.42;;;19.68;45.99
54321;BME280;40219;55.838;-4.266;2022-09-09T08:03:42;100617.89;;;19.74;45.40
54321;BME280;40219;55.838;-4.266;2022-09-09T08:06:09;100622.95;;;19.74;45.79
54321;BME280;40219;55.838;-4.266;2022-09-09T08:08:37;100629.80;;;19.99;45.78
54321;BME280;40219;55.838;-4.266;2022-09-09T08:11:06;100637.13;;;19.90;45.65
54321;BME280;40219;55.838;-4.266;2022-09-09T08:13:34;100630.31;;;20.01;45.38
54321;BME280;40219;55.838;-4.266;2022-09-09T08:16:08;100640.72;;;19.94;45.75
54321;BME280;40219;55.838;-4.266;2022-09-09T08:18:35;100641.87;;;19.62;45.39
54321;BME280;40219;55.838;-4.266;2022-09-09T08:21:08;100645.11;;;19.95;45.13
54321;BME280;40219;55.838;-4.266;2022-09-09T08:23:36;100649.87;;;20.36;45.13
54321;BME280;40219;55.838;-4.266;2022-09-09T08:26:05;100650.73;;;19.99;45.02
54321;BME280;40219;55.838;-4.266;2022-09-09T08:28:36;100650.93;;;20.00;45.20
54321;BME280;40219;55.838;-4.266;2022-09-09T08:31:08;100658.10;;;19.46;45.81
54321;BME280;40219;55.838;-4.266;2022-09-09T08:33:36;100659.41;;;19.53;46.32
54321;BME280;40219;55.838;-4.266;2022-09-09T08:36:05;100659.33;;;19.64;46.38
54321;BME280;40219;55.838;-4.266;2022-09-09T08:38:33;100666.05;;;19.63;46.19
54321;BME280;40219;55.838;-4.266;2022-09-09T08:41:15;100664.82;;;19.50;46.15
54321;BME280;40219;55.838;-4.266;2022-09-09T08:43:47;100676.44;;;19.64;46.21
54321;BME280;40219;55.838;-4.266;2022-09-09T08:46:21;100679.67;;;19.55;46.02
54321;BME280;40219;55.838;-4.266;2022-09-09T08:48:58;100674.74;;;19.88;45.81
54321;BME280;40219;55.838;-4.266;2022-09-09T08:51:30;100683.20;;;19.61;45.29
54321;BME280;40219;55.838;-4.266;2022-09-09T08:53:59;100688.10;;;19.66;45.76
54321;BME280;40219;55.838;-4.266;2022-09-09T08:56:31;100689.62;;;20.03;45.62
54321;BME280;40219;55.838;-4.266;2022-09-09T08:59:01;100695.00;;;19.81;46.05
54321;BME280;40219;55.838;-4.266;2022-09-09T09:01:51;100697.67;;;19.70;45.71
54321;BME280;40219;55.838;-4.266;2022-09-09T09:04:36;100700.99;;;19.80;45.79
54321;BME280;40219;55.838;-4.266;2022-09-09T09:07:15;100702.61;;;19.53;46.20
54321;BME280;40219;55.838;-4.266;2022-09-09T09:09:52;100709.66;;;19.69;46.01
54321;BME280;40219;55.838;-4.266;2022-09-09T09:12:23;100720.45;;;20.05;45.50
54321;BME280;40219;55.838;-4.266;2022-09-09T09:14:51;100723.83;;;20.15;43.93
54321;BME280;40219;55.838;-4.266;2022-09-09T09:17:21;100731.19;;;20.22;43.65
54321;BME280;40219;55.838;-4.266;2022-09-09T09:19:50;100733.00;;;20.46;42.27
54321;BME280;40219;55.838;-4.266;2022-09-09T09:22:19;100747.28;;;20.68;41.89
54321;BME280;40219;55.838;-4.266;2022-09-09T09:24:51;100748.57;;;20.70;41.75
54321;BME280;40219;55.838;-4.266;2022-09-09T09:27:28;100755.45;;;21.29;41.08
54321;BME280;40219;55.838;-4.266;2022-09-09T09:30:00;100763.80;;;21.32;40.77
54321;BME280;40219;55.838;-4.266;2022-09-09T09:32:31;100754.75;;;21.75;39.86
54321;BME280;40219;55.838;-4.266;2022-09-09T09:35:02;100758.18;;;21.80;39.58
54321;BME280;40219;55.838;-4.266;2022-09-09T09:37:34;100768.04;;;22.34;39.27
54321;BME280;40219;55.838;-4.266;2022-09-09T09:40:10;100772.16;;;22.63;37.73
54321;BME280;40219;55.838;-4.266;2022-09-09T09:42:38;100773.49;;;22.33;38.17
54321;BME280;40219;55.838;-4.266;2022-09-09T09:45:17;100776.62;;;22.65;37.67
54321;BME280;40219;55.838;-4.266;2022-09-09T09:47:59;100784.00;;;23.11;37.27
54321;BME280;40219;55.838;-4.266;2022-09-09T09:50:26;100787.88;;;22.87;36.43
54321;BME280;40219;55.838;-4.266;2022-09-09T09:52:55;100788.61;;;22.82;36.12
54321;BME280;40219;55.838;-4.266;2022-09-09T09:55:25;100789.32;;;22.70;36.17
54321;BME280;40219;55.838;-4.266;2022-09-09T09:57:53;100796.23;;;23.30;35.40
54321;BME280;40219;55.838;-4.266;2022-09-09T10:00:25;100796.30;;;23.15;34.90
54321;BME280;40219;55.838;-4.266;2022-09-09T10:02:53;100808.68;;;22.92;34.66
54321;BME280;40219;55.838;-4.266;2022-09-09T10:05:22;100804.35;;;22.37;34.93
54321;BME280;40219;55.838;-4.266;2022-09-09T10:08:02;100812.59;;;22.24;36.08
54321;BME280;40219;55.838;-4.266;2022-09-09T10:10:42;100818.12;;;22.25;36.64
54321;BME280;40219;55.838;-4.266;2022-09-09T10:13:18;100820.02;;;22.30;36.64
54321;BME280;40219;55.838;-4.266;2022-09-09T10:15:53;100817.20;;;22.54;36.60
54321;BME280;40219;55.838;-4.266;2022-09-09T10:18:41;100822.23;;;22.60;36.03
54321;BME280;40219;55.838;-4.266;2022-09-09T10:21:20;100828.34;;;22.90;35.16
54321;BME280;40219;55.838;-4.266;2022-09-09T10:24:03;100835.96;;;23.27;35.28
54321;BME280;40219;55.838;-4.266;2022-09-09T10:26:42;100831.67;;;23.85;33.83
54321;BME280;40219;55.838;-4.266;2022-09-09T10:29:26;100832.04;;;23.26;33.76
54321;BME280;40219;55.838;-4.266;2022-09-09T10:32:05;100837.87;;;23.48;34.11
54321;BME280;40219;55.838;-4.266;2022-09-09T10:34:52;100843.76;;;23.38;33.86
54321;BME280;40219;55.838;-4.266;2022-09-09T10:37:35;100844.70;;;23.27;33.97
54321;BME280;40219;55.838;-4.266;2022-09-09T10:40:20;100847.73;;;23.19;34.27
54321;BME280;40219;55.838;-4.266;2022-09-09T10:42:50;100852.56;;;23.63;33.58
54321;BME280;40219;55.838;-4.266;2022-09-09T10:45:20;100846.14;;;23.99;33.01
54321;BME280;40219;55.838;-4.266;2022-09-09T10:48:07;100845.12;;;23.75;33.60
54321;BME280;40219;55.838;-4.266;2022-09-09T10:50:47;100846.83;;;23.72;33.43
54321;BME280;40219;55.838;-4.266;2022-09-09T10:53:24;100841.78;;;23.97;33.93
54321;BME280;40219;55.838;-4.266;2022-09-09T10:56:01;100843.82;;;23.35;33.55
54321;BME280;40219;55.838;-4.266;2022-09-09T10:58:35;100851.55;;;23.63;33.29
54321;BME280;40219;55.838;-4.266;2022-09-09T11:01:12;100853.88;;;24.10;33.57
54321;BME280;40219;55.838;-4.266;2022-09-09T11:03:41;100855.37;;;24.36;31.78
54321;BME280;40219;55.838;-4.266;2022-09-09T11:06:14;100866.70;;;24.37;32.67
54321;BME280;40219;55.838;-4.266;2022-09-09T11:08:44;100864.33;;;24.83;32.12
54321;BME280;40219;55.838;-4.266;2022-09-09T11:11:17;100871.56;;;24.28;31.90
54321;BME280;40219;55.838;-4.266;2022-09-09T11:13:49;100875.87;;;24.12;32.30
54321;BME280;40219;55.838;-4.266;2022-09-09T11:16:25;100872.07;;;23.22;32.71
54321;BME280;40219;55.838;-4.266;2022-09-09T11:19:00;100874.98;;;23.34;32.63
54321;BME280;40219;55.838;-4.266;2022-09-09T11:21:32;100872.26;;;23.57;32.52
54321;BME280;40219;55.838;-4.266;2022-09-09T11:24:09;100871.04;;;24.23;31.66
54321;BME280;40219;55.838;-4.266;2022-09-09T11:26:44;100880.01;;;24.92;31.27
54321;BME280;40219;55.838;-4.266;2022-09-09T11:29:29;100876.28;;;24.26;31.76
54321;BME280;40219;55.838;-4.266;2022-09-09T11:32:14;100878.99;;;24.33;32.20
54321;BME280;40219;55.838;-4.266;2022-09-09T11:34:56;100870.69;;;24.06;32.35
54321;BME280;40219;55.838;-4.266;2022-09-09T11:37:46;100875.40;;;23.89;32.25
54321;BME280;40219;55.838;-4.266;2022-09-09T11:40:22;100883.29;;;23.57;32.79
54321;BME280;40219;55.838;-4.266;2022-09-09T11:43:04;100884.85;;;23.43;32.08
54321;BME280;40219;55.838;-4.266;2022-09-09T11:45:35;100893.52;;;23.63;31.96
54321;BME280;40219;55.838;-4.266;2022-09-09T11:48:04;100885.03;;;23.45;31.52
54321;BME280;40219;55.838;-4.266;2022-09-09T11:50:34;100886.12;;;23.27;31.59
54321;BME280;40219;55.838;-4.266;2022-09-09T11:53:28;100887.66;;;23.80;30.58
54321;BME280;40219;55.838;-4.266;2022-09-09T11:56:06;100888.26;;;24.29;28.97
54321;BME280;40219;55.838;-4.266;2022-09-09T11:58:39;100885.97;;;24.31;28.59
54321;BME280;40219;55.838;-4.266;2022-09-09T12:01:26;100908.63;;;24.81;28.15
54321;BME280;40219;55.838;-4.266;2022-09-09T12:04:05;100908.97;;;24.89;26.61
54321;BME280;40219;55.838;-4.266;2022-09-09T12:06:43;100914.52;;;25.46;26.04
54321;BME280;40219;55.838;-4.266;2022-09-09T12:09:19;100916.72;;;25.54;25.62
54321;BME280;40219;55.838;-4.266;2022-09-09T12:11:49;100919.58;;;25.82;24.02
54321;BME280;40219;55.838;-4.266;2022-09-09T12:14:22;100921.30;;;25.82;23.35
54321;BME280;40219;55.838;-4.266;2022-09-09T12:16:50;100919.56;;;26.01;23.55
54321;BME280;40219;55.838;-4.266;2022-09-09T12:19:21;100924.41;;;25.73;23.96
54321;BME280;40219;55.838;-4.266;2022-09-09T12:21:55;100927.88;;;25.72;23.90
54321;BME280;40219;55.838;-4.266;2022-09-09T12:24:32;100929.60;;;25.57;24.05
54321;BME280;40219;55.838;-4.266;2022-09-09T12:27:07;100928.70;;;25.42;24.37
54321;BME280;40219;55.838;-4.266;2022-09-09T12:29:43;100930.05;;;25.46;24.52
54321;BME280;40219;55.838;-4.266;2022-09-09T12:32:17;100937.82;;;25.61;24.65
54321;BME280;40219;55.838;-4.266;2022-09-09T12:34:48;100935.08;;;25.83;24.84
54321;BME280;40219;55.838;-4.266;2022-09-09T12:37:27;100930.09;;;26.19;24.39
54321;BME280;40219;55.838;-4.266;2022-09-09T12:39:57;100933.23;;;25.48;24.44
54321;BME280;40219;55.838;-4.266;2022-09-09T12:42:25;100925.13;;;25.17;24.96
54321;BME280;40219;55.838;-4.266;2022-09-09T12:44:54;100930.75;;;24.88;25.52
54321;BME280;40219;55.838;-4.266;2022-09-09T12:47:26;100926.84;;;25.33;25.50
54321;BME280;40219;55.838;-4.266;2022-09-09T12:49:56;100926.69;;;25.54;25.15
54321;BME280;40219;55.838;-4.266;2022-09-09T12:52:28;100939.38;;;26.06;25.04
54321;BME280;40219;55.838;-4.266;2022-09-09T12:54:58;100939.77;;;26.53;25.13
54321;BME280;40219;55.838;-4.266;2022-09-09T12:57:35;100945.33;;;25.46;25.57
54321;BME280;40219;55.838;-4.266;2022-09-09T13:00:07;100945.94;;;25.35;25.06
54321;BME280;40219;55.838;-4.266;2022-09-09T13:02:48;100947.35;;;25.42;24.94